Terminal Aerodrome Forecast
Issued by NWS

Current Version | Previous Version | Graphics & Text | Print | Product List | Glossary On
Versions: 1 2 3 4 5 6 7 8 9 10 11 12 13 14 15
181
FTUS41 KILN 121745
TAFLCK
TAF
KLCK 121745Z 1218/1318 25010G18KT P6SM -SHSN OVC035
     FM122200 28012G22KT 2SM -SHSN OVC022
     FM130100 32015G25KT P6SM -SHSN BKN020
     FM130600 34014G22KT P6SM -SHSN BKN020
     FM131000 34010KT P6SM SCT020 SCT035
     FM131700 32010KT P6SM BKN025=

USA.gov is the U.S. government's official web portal to all federal, state and local government web resources and services.